createdAt,value
2023-03-10T00:00:34.213Z,1.00
2023-03-10T00:02:39.199Z,1.00
2023-03-10T00:04:49.093Z,1.00
2023-03-10T00:06:54.037Z,1.00
2023-03-10T00:08:59.694Z,1.00
2023-03-10T00:11:04.713Z,1.00
2023-03-10T00:13:09.903Z,1.00
2023-03-10T00:15:16.914Z,1.00
2023-03-10T00:17:24.159Z,1.00
2023-03-10T00:19:29.536Z,1.00
2023-03-10T00:21:37.700Z,1.00
2023-03-10T00:23:42.621Z,1.00
2023-03-10T00:25:47.967Z,1.00
2023-03-10T00:27:52.935Z,1.00
2023-03-10T00:30:00.572Z,1.00
2023-03-10T00:32:07.372Z,1.00
2023-03-10T00:34:15.145Z,1.00
2023-03-10T00:36:23.682Z,1.00
2023-03-10T00:38:34.051Z,1.00
2023-03-10T00:40:41.020Z,1.00
2023-03-10T00:42:46.715Z,1.00
2023-03-10T00:44:52.139Z,1.00
2023-03-10T00:46:57.241Z,1.00
2023-03-10T00:49:02.268Z,1.00
2023-03-10T00:51:09.146Z,1.00
2023-03-10T00:53:14.099Z,1.00
2023-03-10T00:55:21.785Z,1.00
2023-03-10T00:57:26.808Z,1.00
2023-03-10T00:59:44.118Z,1.00
2023-03-10T01:01:55.580Z,1.00
2023-03-10T01:04:04.402Z,1.00
2023-03-10T01:06:10.395Z,1.00
2023-03-10T01:08:15.909Z,1.00
2023-03-10T01:10:24.201Z,1.00
2023-03-10T01:12:29.215Z,1.00
2023-03-10T01:14:35.221Z,1.00
2023-03-10T01:16:40.453Z,1.00
2023-03-10T01:18:46.248Z,1.00
2023-03-10T01:20:54.034Z,1.00
2023-03-10T01:22:59.723Z,1.00
2023-03-10T01:25:05.303Z,1.00
2023-03-10T01:27:12.944Z,1.00
2023-03-10T01:29:17.973Z,1.00
2023-03-10T01:31:25.381Z,1.00
2023-03-10T01:33:30.747Z,1.00
2023-03-10T01:35:38.260Z,1.00
2023-03-10T01:37:44.531Z,1.00
2023-03-10T01:39:49.883Z,1.00
2023-03-10T01:41:56.009Z,1.00
2023-03-10T01:44:04.989Z,1.00
2023-03-10T01:46:50.903Z,1.00
2023-03-10T01:49:41.253Z,1.00
2023-03-10T01:51:53.851Z,1.00
2023-03-10T01:54:00.234Z,1.00
2023-03-10T01:56:11.170Z,1.00
2023-03-10T01:58:18.563Z,1.00
2023-03-10T02:00:29.953Z,1.00
2023-03-10T02:02:37.966Z,1.00
2023-03-10T02:04:48.633Z,1.00
2023-03-10T02:07:00.426Z,1.00
2023-03-10T02:09:08.669Z,1.00
2023-03-10T02:11:16.476Z,1.00
2023-03-10T02:13:21.833Z,1.00
2023-03-10T02:15:32.216Z,1.00
2023-03-10T02:17:37.794Z,1.00
2023-03-10T02:20:08.625Z,1.00
2023-03-10T02:22:15.974Z,1.00
2023-03-10T02:24:29.714Z,1.00
2023-03-10T02:26:49.140Z,1.00
2023-03-10T02:29:01.722Z,1.00
2023-03-10T02:31:07.894Z,1.00
2023-03-10T02:33:17.511Z,1.00
2023-03-10T02:35:28.521Z,1.00
2023-03-10T02:37:40.963Z,1.00
2023-03-10T02:39:46.788Z,1.00
2023-03-10T02:41:53.118Z,1.00
2023-03-10T02:44:04.355Z,1.00
2023-03-10T02:46:11.360Z,1.00
2023-03-10T02:48:32.372Z,1.00
2023-03-10T02:50:42.368Z,1.00
2023-03-10T02:52:52.756Z,1.00
2023-03-10T02:55:00.115Z,1.00
2023-03-10T02:57:08.403Z,1.00
2023-03-10T02:59:16.793Z,1.00
2023-03-10T03:01:27.103Z,1.00
2023-03-10T03:03:35.627Z,1.00
2023-03-10T03:05:44.408Z,1.00
2023-03-10T03:07:49.786Z,12.40
2023-03-10T03:09:54.768Z,32.10
2023-03-10T03:12:04.995Z,54.20
2023-03-10T03:14:10.032Z,46.70
2023-03-10T03:16:30.965Z,26.90
2023-03-10T03:18:41.181Z,22.60
2023-03-10T03:20:50.820Z,35.10
2023-03-10T03:22:59.249Z,28.70
2023-03-10T03:25:04.724Z,45.10
2023-03-10T03:27:10.472Z,38.00
2023-03-10T03:29:17.661Z,29.10
2023-03-10T03:31:29.399Z,20.50
2023-03-10T03:33:43.987Z,6.20
2023-03-10T03:35:49.711Z,99.90
2023-03-10T03:37:58.339Z,99.90
2023-03-10T03:40:07.279Z,99.90
2023-03-10T03:42:17.002Z,99.90
2023-03-10T03:44:31.370Z,99.90
2023-03-10T03:46:44.251Z,99.90
2023-03-10T03:48:49.261Z,99.90
2023-03-10T03:50:54.328Z,99.90
2023-03-10T03:53:08.820Z,99.90
2023-03-10T03:55:16.874Z,82.70
2023-03-10T03:57:23.625Z,57.30
2023-03-10T03:59:31.285Z,41.90
2023-03-10T04:01:39.077Z,29.70
2023-03-10T04:03:50.268Z,4.70
2023-03-10T04:05:57.645Z,1.00
2023-03-10T04:08:05.045Z,1.00
2023-03-10T04:10:12.935Z,1.00
2023-03-10T04:12:18.291Z,1.00
2023-03-10T04:14:29.501Z,1.00
2023-03-10T04:16:37.070Z,1.00
2023-03-10T04:18:46.193Z,1.00
2023-03-10T04:20:55.772Z,1.00
2023-03-10T04:23:02.401Z,1.00
2023-03-10T04:25:12.662Z,1.00
2023-03-10T04:27:21.077Z,1.00
2023-03-10T04:29:27.594Z,1.00
2023-03-10T04:31:34.519Z,1.00
2023-03-10T04:33:41.256Z,1.00
2023-03-10T04:35:51.630Z,1.00
2023-03-10T04:37:59.562Z,1.00
2023-03-10T04:40:09.540Z,15.00
2023-03-10T04:42:14.726Z,59.40
2023-03-10T04:44:30.454Z,76.10
2023-03-10T04:46:41.980Z,80.60
2023-03-10T04:48:48.222Z,88.70
2023-03-10T04:51:02.374Z,67.40
2023-03-10T04:53:12.383Z,36.60
2023-03-10T04:55:17.359Z,28.10
2023-03-10T04:57:25.045Z,17.00
2023-03-10T04:59:31.464Z,15.80
2023-03-10T05:01:36.736Z,5.60
2023-03-10T05:03:46.765Z,1.00
2023-03-10T05:05:54.177Z,1.00
2023-03-10T05:08:02.405Z,1.20
2023-03-10T05:10:12.800Z,2.30
2023-03-10T05:12:18.034Z,1.00
2023-03-10T05:14:24.178Z,1.00
2023-03-10T05:16:31.031Z,1.00
2023-03-10T05:18:36.694Z,1.00
2023-03-10T05:20:43.196Z,1.00
2023-03-10T05:22:51.303Z,1.00
2023-03-10T05:25:00.214Z,1.00
2023-03-10T05:27:05.266Z,1.00
2023-03-10T05:29:11.323Z,1.00
2023-03-10T05:31:26.397Z,1.00
2023-03-10T05:33:39.990Z,1.00
2023-03-10T05:35:45.033Z,1.00
2023-03-10T05:37:56.304Z,1.00
2023-03-10T05:40:05.099Z,1.00
2023-03-10T05:42:12.305Z,1.00
2023-03-10T05:44:20.927Z,1.00
2023-03-10T05:46:29.208Z,1.00
2023-03-10T05:48:37.555Z,1.00
2023-03-10T05:50:43.243Z,1.00
2023-03-10T05:52:49.342Z,1.00
2023-03-10T05:54:57.908Z,1.00
2023-03-10T05:57:05.492Z,1.00
2023-03-10T05:59:11.030Z,1.00
2023-03-10T06:01:17.345Z,1.00
2023-03-10T06:03:23.796Z,1.00
2023-03-10T06:05:29.063Z,1.00
2023-03-10T06:07:36.569Z,1.00
2023-03-10T06:09:42.232Z,1.00
2023-03-10T06:11:49.829Z,1.00
2023-03-10T06:13:57.422Z,1.00
2023-03-10T06:16:04.723Z,1.00
2023-03-10T06:18:09.692Z,1.00
2023-03-10T06:20:17.144Z,1.00
2023-03-10T06:22:22.477Z,1.00
2023-03-10T06:24:27.795Z,1.00
2023-03-10T06:26:32.821Z,1.00
2023-03-10T06:28:41.137Z,1.00
2023-03-10T06:30:57.568Z,1.00
2023-03-10T06:33:03.277Z,1.00
2023-03-10T06:35:13.561Z,1.00
2023-03-10T06:37:18.973Z,1.00
2023-03-10T06:39:27.669Z,1.00
2023-03-10T06:41:32.868Z,1.00
2023-03-10T06:43:40.627Z,1.00
2023-03-10T06:45:51.738Z,1.00
2023-03-10T06:47:56.771Z,1.00
2023-03-10T06:50:06.058Z,1.00
2023-03-10T06:52:11.037Z,1.00
2023-03-10T06:54:16.217Z,1.00
2023-03-10T06:56:24.085Z,1.00
2023-03-10T06:58:29.206Z,1.00
2023-03-10T07:00:34.260Z,1.00
2023-03-10T07:02:41.774Z,1.00
2023-03-10T07:04:47.025Z,1.00
2023-03-10T07:06:54.144Z,1.00
2023-03-10T07:08:59.534Z,1.00
2023-03-10T07:11:04.745Z,1.00
2023-03-10T07:13:10.811Z,1.00
2023-03-10T07:15:17.376Z,1.00
2023-03-10T07:17:22.336Z,1.00
2023-03-10T07:19:29.918Z,1.00
2023-03-10T07:21:35.039Z,1.00
2023-03-10T07:23:40.454Z,1.00
2023-03-10T07:25:46.865Z,1.00
2023-03-10T07:27:52.259Z,1.00
2023-03-10T07:29:57.345Z,1.00
2023-03-10T07:32:06.911Z,1.00
2023-03-10T07:34:11.840Z,1.00
2023-03-10T07:36:22.575Z,1.00
2023-03-10T07:38:27.557Z,1.00
2023-03-10T07:40:36.625Z,1.00
2023-03-10T07:42:42.128Z,1.00
2023-03-10T07:44:47.733Z,1.00
2023-03-10T07:46:52.799Z,1.00
2023-03-10T07:49:00.444Z,1.00
2023-03-10T07:51:08.171Z,1.00
2023-03-10T07:53:15.945Z,1.00
2023-03-10T07:55:23.935Z,1.00
2023-03-10T07:57:30.995Z,1.00
2023-03-10T07:59:39.021Z,1.00
2023-03-10T08:01:44.293Z,1.00
2023-03-10T08:03:49.990Z,1.00
2023-03-10T08:05:56.373Z,1.00
2023-03-10T08:08:01.691Z,1.00
2023-03-10T08:10:11.751Z,1.00
2023-03-10T08:12:16.821Z,1.00
2023-03-10T08:14:24.128Z,1.00
2023-03-10T08:16:31.037Z,1.00
2023-03-10T08:18:36.728Z,1.00
2023-03-10T08:20:51.990Z,1.00
2023-03-10T08:22:56.927Z,1.00
2023-03-10T08:25:02.244Z,1.00
2023-03-10T08:27:10.240Z,1.00
2023-03-10T08:29:15.288Z,1.00
2023-03-10T08:31:23.791Z,1.00
2023-03-10T08:33:30.805Z,1.00
2023-03-10T08:35:36.205Z,1.00
2023-03-10T08:37:43.357Z,1.00
2023-03-10T08:39:50.116Z,1.00
2023-03-10T08:41:56.490Z,1.00
2023-03-10T08:44:04.502Z,1.00
2023-03-10T08:46:10.005Z,1.00
2023-03-10T08:48:15.057Z,1.00
2023-03-10T08:50:23.985Z,1.00
2023-03-10T08:52:29.939Z,1.00
2023-03-10T08:54:34.854Z,1.00
2023-03-10T08:56:40.353Z,1.00
2023-03-10T08:58:48.060Z,1.00
2023-03-10T09:00:57.519Z,1.00
2023-03-10T09:03:02.507Z,1.00
2023-03-10T09:05:10.609Z,1.00
2023-03-10T09:07:15.598Z,1.00
2023-03-10T09:09:25.110Z,1.00
2023-03-10T09:11:32.786Z,1.00
2023-03-10T09:13:38.220Z,1.00
2023-03-10T09:15:43.701Z,1.00
2023-03-10T09:17:51.250Z,1.00
2023-03-10T09:19:56.567Z,1.00
2023-03-10T09:22:01.598Z,1.00
2023-03-10T09:24:07.143Z,1.00
2023-03-10T09:26:12.222Z,1.00
2023-03-10T09:28:18.830Z,1.00
2023-03-10T09:30:24.761Z,1.00
2023-03-10T09:32:35.032Z,1.00
2023-03-10T09:34:42.602Z,1.00
2023-03-10T09:36:47.863Z,1.00
2023-03-10T09:38:52.928Z,1.00
2023-03-10T09:41:16.356Z,1.00
2023-03-10T09:43:23.684Z,1.00
2023-03-10T09:45:45.776Z,1.00
2023-03-10T09:48:28.011Z,1.00
2023-03-10T09:50:41.431Z,1.00
2023-03-10T09:52:49.900Z,6.00
2023-03-10T09:55:02.696Z,81.60
2023-03-10T09:57:23.764Z,1.00
2023-03-10T09:59:35.241Z,99.90
2023-03-10T10:01:44.839Z,1.00
2023-03-10T10:03:54.797Z,99.90
2023-03-10T10:06:03.366Z,42.10
2023-03-10T10:08:26.041Z,1.00
2023-03-10T10:10:37.929Z,1.00
2023-03-10T10:12:45.197Z,99.90
2023-03-10T10:14:57.291Z,99.90
2023-03-10T10:17:11.478Z,99.90
2023-03-10T10:19:22.946Z,99.90
2023-03-10T10:21:45.475Z,99.90
2023-03-10T10:23:54.232Z,32.00
2023-03-10T10:26:04.045Z,1.00
2023-03-10T10:28:24.444Z,1.00
2023-03-10T10:30:37.645Z,1.00
2023-03-10T10:33:01.410Z,1.00
2023-03-10T10:35:18.282Z,1.00
2023-03-10T10:37:34.013Z,1.00
2023-03-10T10:39:46.554Z,1.00
2023-03-10T10:41:52.162Z,1.00
2023-03-10T10:44:01.885Z,1.00
2023-03-10T10:46:11.263Z,1.00
2023-03-10T10:48:41.862Z,1.00
2023-03-10T10:50:57.299Z,1.00
2023-03-10T10:53:24.396Z,1.00
2023-03-10T10:55:34.933Z,1.00
2023-03-10T10:57:46.140Z,1.00
2023-03-10T10:59:51.638Z,1.00
2023-03-10T11:02:01.431Z,1.00
2023-03-10T11:04:10.696Z,1.00
2023-03-10T11:06:27.152Z,1.00
2023-03-10T11:08:40.677Z,1.00
2023-03-10T11:10:47.318Z,1.00
2023-03-10T11:13:10.491Z,1.00
2023-03-10T11:15:22.644Z,1.00
2023-03-10T11:17:35.609Z,1.00
2023-03-10T11:19:55.634Z,1.00
2023-03-10T11:22:08.894Z,1.00
2023-03-10T11:24:27.771Z,1.00
2023-03-10T11:26:49.886Z,1.00
2023-03-10T11:29:00.268Z,1.00
2023-03-10T11:31:21.836Z,1.00
2023-03-10T11:33:38.986Z,1.00
2023-03-10T11:35:49.358Z,1.00
2023-03-10T11:38:01.794Z,1.00
2023-03-10T11:40:23.720Z,1.00
2023-03-10T11:42:37.053Z,1.00
2023-03-10T11:44:50.016Z,1.00
2023-03-10T11:47:05.499Z,1.00
2023-03-10T11:49:14.937Z,1.00
2023-03-10T11:51:31.467Z,1.00
2023-03-10T11:53:44.234Z,1.00
2023-03-10T11:55:53.183Z,1.00
2023-03-10T11:58:02.575Z,1.00
2023-03-10T12:00:18.784Z,1.00
2023-03-10T12:02:29.737Z,1.00
2023-03-10T12:04:42.018Z,1.00
2023-03-10T12:06:55.377Z,1.00
2023-03-10T12:09:04.050Z,1.00
2023-03-10T12:11:22.772Z,1.00
2023-03-10T12:13:33.871Z,1.00
2023-03-10T12:15:40.518Z,1.00
2023-03-10T12:17:46.196Z,1.00
2023-03-10T12:20:28.751Z,1.00
2023-03-10T12:22:41.621Z,1.00
2023-03-10T12:24:53.043Z,1.00
2023-03-10T12:27:07.754Z,1.00
2023-03-10T12:29:39.700Z,1.00
2023-03-10T12:31:50.075Z,1.00
2023-03-10T12:33:56.251Z,1.00
2023-03-10T12:36:09.310Z,1.00
2023-03-10T12:38:43.136Z,1.00
2023-03-10T12:40:53.031Z,1.00
2023-03-10T12:43:04.423Z,1.00
2023-03-10T12:45:28.518Z,1.00
2023-03-10T12:47:48.792Z,1.00
2023-03-10T12:50:00.176Z,1.00
2023-03-10T12:52:26.465Z,1.00
2023-03-10T12:54:44.775Z,1.00
2023-03-10T12:56:54.910Z,1.00
2023-03-10T13:02:26.895Z,1.00
2023-03-10T13:04:31.981Z,1.00
2023-03-10T13:06:40.598Z,1.00
2023-03-10T13:08:49.740Z,1.00
2023-03-10T13:10:57.217Z,99.90
2023-03-10T13:13:10.630Z,99.90
2023-03-10T13:15:25.794Z,1.00
2023-03-10T13:17:35.161Z,99.90
2023-03-10T13:19:41.043Z,99.90
2023-03-10T13:21:53.617Z,99.90
2023-03-10T13:23:59.265Z,99.90
2023-03-10T13:26:10.031Z,99.90
2023-03-10T13:28:17.621Z,99.90
2023-03-10T13:30:26.598Z,99.90
2023-03-10T13:32:35.221Z,99.90
2023-03-10T13:34:42.304Z,99.90
2023-03-10T13:36:47.375Z,99.90
2023-03-10T13:38:53.184Z,99.90
2023-03-10T13:41:05.696Z,99.90
2023-03-10T13:43:34.989Z,99.90
2023-03-10T13:45:40.406Z,99.90
2023-03-10T13:47:51.101Z,99.90
2023-03-10T13:50:00.336Z,99.90
2023-03-10T13:52:09.617Z,99.90
2023-03-10T13:54:22.199Z,99.90
2023-03-10T13:56:32.573Z,1.00
2023-03-10T13:58:37.648Z,1.00
2023-03-10T14:00:47.381Z,1.00
2023-03-10T14:02:56.395Z,99.90
2023-03-10T14:05:06.814Z,1.00
2023-03-10T14:07:18.395Z,99.90
2023-03-10T14:09:25.613Z,99.90
2023-03-10T14:11:41.369Z,99.90
2023-03-10T14:13:55.228Z,99.90
2023-03-10T14:16:02.401Z,99.90
2023-03-10T14:18:28.398Z,99.90
2023-03-10T14:20:35.745Z,99.90
2023-03-10T14:22:43.584Z,99.90
2023-03-10T14:24:51.125Z,99.90
2023-03-10T14:26:55.853Z,1.00
2023-03-10T14:29:03.641Z,1.00
2023-03-10T14:31:08.762Z,1.00
2023-03-10T14:33:17.400Z,1.00
2023-03-10T14:35:29.208Z,1.00
2023-03-10T14:37:34.082Z,1.00
2023-03-10T14:39:39.101Z,1.00
2023-03-10T14:41:44.076Z,1.00
2023-03-10T14:43:49.243Z,1.00
2023-03-10T14:45:57.795Z,1.00
2023-03-10T14:48:06.834Z,1.00
2023-03-10T14:50:17.246Z,1.00
2023-03-10T14:52:24.684Z,1.00
2023-03-10T14:54:29.905Z,1.00
2023-03-10T14:56:35.853Z,1.00
2023-03-10T14:58:49.280Z,1.00
2023-03-10T15:00:55.804Z,1.00
2023-03-10T15:03:05.335Z,1.00
2023-03-10T15:05:18.730Z,1.00
2023-03-10T15:07:26.178Z,1.00
2023-03-10T15:09:31.141Z,1.00
2023-03-10T15:11:37.749Z,1.00
2023-03-10T15:13:44.050Z,1.00
2023-03-10T15:15:50.702Z,1.00
2023-03-10T15:17:55.944Z,1.00
2023-03-10T15:20:01.906Z,1.00
2023-03-10T15:22:08.649Z,1.00
2023-03-10T15:24:16.102Z,1.00
2023-03-10T15:26:23.451Z,1.00
2023-03-10T15:28:28.383Z,1.00
2023-03-10T15:30:35.939Z,99.90
2023-03-10T15:32:40.869Z,99.90
2023-03-10T15:34:48.280Z,99.90
2023-03-10T15:36:53.410Z,99.90
2023-03-10T15:38:59.334Z,99.90
2023-03-10T15:41:09.375Z,64.00
2023-03-10T15:43:14.279Z,35.40
2023-03-10T15:45:22.529Z,1.00
2023-03-10T15:47:30.767Z,1.00
2023-03-10T15:49:40.945Z,1.00
2023-03-10T15:51:48.148Z,1.00
2023-03-10T15:53:53.654Z,1.00
2023-03-10T15:55:58.509Z,1.00
2023-03-10T15:58:05.980Z,99.90
2023-03-10T16:00:13.683Z,99.90
2023-03-10T16:02:20.452Z,99.90
2023-03-10T16:04:26.782Z,99.90
2023-03-10T16:06:32.238Z,99.90
2023-03-10T16:08:40.522Z,99.90
2023-03-10T16:10:53.840Z,99.90
2023-03-10T16:12:59.700Z,99.90
2023-03-10T16:15:08.025Z,99.90
2023-03-10T16:17:14.050Z,99.90
2023-03-10T16:19:19.199Z,99.90
2023-03-10T16:21:24.482Z,99.90
2023-03-10T16:23:30.667Z,99.90
2023-03-10T16:25:35.540Z,99.90
2023-03-10T16:27:42.081Z,99.90
2023-03-10T16:29:47.182Z,99.90
2023-03-10T16:31:54.814Z,99.90
2023-03-10T16:34:00.460Z,99.90
2023-03-10T16:36:09.845Z,99.90
2023-03-10T16:38:14.735Z,99.90
2023-03-10T16:40:20.038Z,99.90
2023-03-10T16:42:26.325Z,99.90
2023-03-10T16:44:31.244Z,99.90
2023-03-10T16:46:38.159Z,99.90
2023-03-10T16:48:48.259Z,99.90
2023-03-10T16:50:53.093Z,99.90
2023-03-10T16:52:58.049Z,99.90
2023-03-10T16:55:05.448Z,99.90
2023-03-10T16:57:12.250Z,99.90
2023-03-10T16:59:19.632Z,99.90
2023-03-10T17:01:25.785Z,99.90
2023-03-10T17:03:31.165Z,99.90
2023-03-10T17:05:39.285Z,99.90
2023-03-10T17:07:54.977Z,99.90
2023-03-10T17:10:02.844Z,99.90
2023-03-10T17:12:10.036Z,99.90
2023-03-10T17:14:18.669Z,99.90
2023-03-10T17:16:28.358Z,99.90
2023-03-10T17:18:34.684Z,99.90
2023-03-10T17:20:42.233Z,99.90
2023-03-10T17:22:47.167Z,99.90
2023-03-10T17:24:55.349Z,99.90
2023-03-10T17:27:00.356Z,99.90
2023-03-10T17:29:06.533Z,99.90
2023-03-10T17:31:13.720Z,99.90
2023-03-10T17:33:18.623Z,99.90
2023-03-10T17:35:24.153Z,99.90
2023-03-10T17:37:33.250Z,99.90
2023-03-10T17:39:39.285Z,99.90
2023-03-10T17:41:44.324Z,99.90
2023-03-10T17:43:49.221Z,99.90
2023-03-10T17:45:59.318Z,99.90
2023-03-10T17:48:05.649Z,99.90
2023-03-10T17:50:12.326Z,99.90
2023-03-10T17:52:18.290Z,99.90
2023-03-10T17:54:28.209Z,99.90
2023-03-10T17:56:33.423Z,99.90
2023-03-10T17:58:38.835Z,99.90
2023-03-10T18:00:46.800Z,99.90
2023-03-10T18:02:53.676Z,99.90
2023-03-10T18:05:00.341Z,99.90
2023-03-10T18:07:05.233Z,99.90
2023-03-10T18:09:17.221Z,99.90
2023-03-10T18:11:25.919Z,99.90
2023-03-10T18:13:32.153Z,99.90
2023-03-10T18:15:40.093Z,99.90
2023-03-10T18:17:46.480Z,99.90
2023-03-10T18:19:55.989Z,99.90
2023-03-10T18:22:01.197Z,99.90
2023-03-10T18:24:06.598Z,99.90
2023-03-10T18:26:13.444Z,99.90
2023-03-10T18:28:23.522Z,99.90
2023-03-10T18:30:28.482Z,99.90
2023-03-10T18:32:34.254Z,99.90
2023-03-10T18:34:39.488Z,99.90
2023-03-10T18:36:49.714Z,99.90
2023-03-10T18:38:55.756Z,99.90
2023-03-10T18:41:01.467Z,99.90
2023-03-10T18:43:06.457Z,99.90
2023-03-10T18:45:19.701Z,99.90
2023-03-10T18:47:24.811Z,99.90
2023-03-10T18:49:30.195Z,99.90
2023-03-10T18:51:39.573Z,99.90
2023-03-10T18:53:45.276Z,99.90
2023-03-10T18:55:52.834Z,99.90
2023-03-10T18:58:00.346Z,99.90
2023-03-10T19:00:07.392Z,99.90
2023-03-10T19:02:19.420Z,99.90
2023-03-10T19:04:26.889Z,99.90
2023-03-10T19:06:36.763Z,99.90
2023-03-10T19:08:42.315Z,99.90
2023-03-10T19:10:48.463Z,99.90
2023-03-10T19:12:53.616Z,99.90
2023-03-10T19:14:59.427Z,99.90
2023-03-10T19:17:04.393Z,99.90
2023-03-10T19:19:20.639Z,99.90
2023-03-10T19:21:25.514Z,99.90
2023-03-10T19:23:32.302Z,99.90
2023-03-10T19:25:41.901Z,99.90
2023-03-10T19:27:49.093Z,99.90
2023-03-10T19:29:55.129Z,99.90
2023-03-10T19:31:59.999Z,99.90
2023-03-10T19:34:04.852Z,99.90
2023-03-10T19:36:16.725Z,99.90
2023-03-10T19:38:21.825Z,99.90
2023-03-10T19:40:29.435Z,99.90
2023-03-10T19:42:35.464Z,99.90
2023-03-10T19:44:41.730Z,99.90
2023-03-10T19:46:47.855Z,99.90
2023-03-10T19:48:53.124Z,99.90
2023-03-10T19:50:59.110Z,99.90
2023-03-10T19:53:06.857Z,99.90
2023-03-10T19:55:16.595Z,99.90
2023-03-10T19:57:21.625Z,99.90
2023-03-10T19:59:26.739Z,99.90
2023-03-10T20:01:34.670Z,99.90
2023-03-10T20:03:39.726Z,99.90
2023-03-10T20:05:48.593Z,99.90
2023-03-10T20:07:53.770Z,99.90
2023-03-10T20:10:03.486Z,99.90
2023-03-10T20:12:09.121Z,99.90
2023-03-10T20:14:14.497Z,99.90
2023-03-10T20:16:24.129Z,99.90
2023-03-10T20:18:29.493Z,99.90
2023-03-10T20:20:37.170Z,99.90
2023-03-10T20:22:45.415Z,99.90
2023-03-10T20:24:50.398Z,99.90
2023-03-10T20:27:00.183Z,99.90
2023-03-10T20:29:05.362Z,99.90
2023-03-10T20:31:11.543Z,99.90
2023-03-10T20:33:20.649Z,99.90
2023-03-10T20:35:28.116Z,99.90
2023-03-10T20:37:33.777Z,99.90
2023-03-10T20:39:38.909Z,99.90
2023-03-10T20:41:45.068Z,99.90
2023-03-10T20:43:53.743Z,99.90
2023-03-10T20:45:58.915Z,99.90
2023-03-10T20:48:06.773Z,99.90
2023-03-10T20:50:14.744Z,99.90
2023-03-10T20:52:20.022Z,99.90
2023-03-10T20:54:26.587Z,99.90
2023-03-10T20:56:35.686Z,99.90
2023-03-10T20:58:41.656Z,99.90
2023-03-10T21:00:51.585Z,99.90
2023-03-10T21:02:58.564Z,99.90
2023-03-10T21:05:05.912Z,99.90
2023-03-10T21:07:10.846Z,99.90
2023-03-10T21:09:17.772Z,99.90
2023-03-10T21:11:25.189Z,99.90
2023-03-10T21:13:33.365Z,99.90
2023-03-10T21:15:38.476Z,99.90
2023-03-10T21:17:46.836Z,99.90
2023-03-10T21:19:52.524Z,99.90
2023-03-10T21:21:57.886Z,99.90
2023-03-10T21:24:03.227Z,99.90
2023-03-10T21:26:17.055Z,99.90
2023-03-10T21:28:23.719Z,99.90
2023-03-10T21:30:32.091Z,99.90
2023-03-10T21:32:42.741Z,99.90
2023-03-10T21:34:50.616Z,99.90
2023-03-10T21:36:56.958Z,99.90
2023-03-10T21:39:02.939Z,99.90
2023-03-10T21:41:09.007Z,99.90
2023-03-10T21:43:16.401Z,99.90
2023-03-10T21:45:24.803Z,99.90
2023-03-10T21:47:29.651Z,99.90
2023-03-10T21:49:34.573Z,99.90
2023-03-10T21:51:47.870Z,99.90
2023-03-10T21:53:53.723Z,7.30
2023-03-10T21:56:00.639Z,1.00
2023-03-10T21:58:05.639Z,1.00
2023-03-10T22:00:16.199Z,1.00
2023-03-10T22:02:28.004Z,1.00
2023-03-10T22:04:33.002Z,1.00
2023-03-10T22:06:43.418Z,1.00
2023-03-10T22:08:48.403Z,1.00
2023-03-10T22:10:54.929Z,1.00
2023-03-10T22:13:00.505Z,1.00
2023-03-10T22:15:10.234Z,1.00
2023-03-10T22:17:17.099Z,1.00
2023-03-10T22:19:22.497Z,99.90
2023-03-10T22:21:27.332Z,99.90
2023-03-10T22:23:36.007Z,99.90
2023-03-10T22:25:44.265Z,99.90
2023-03-10T22:27:53.615Z,99.90
2023-03-10T22:29:59.640Z,99.90
2023-03-10T22:32:05.854Z,99.90
2023-03-10T22:34:13.398Z,99.90
2023-03-10T22:36:20.979Z,99.90
2023-03-10T22:38:27.401Z,99.90
2023-03-10T22:40:35.630Z,99.90
2023-03-10T22:42:45.034Z,99.90
2023-03-10T22:44:51.200Z,99.90
2023-03-10T22:46:56.506Z,99.90
2023-03-10T22:49:02.509Z,99.90
2023-03-10T22:51:13.558Z,99.90
2023-03-10T22:53:22.259Z,99.90
2023-03-10T22:55:35.059Z,99.90
2023-03-10T22:57:42.813Z,99.90
2023-03-10T22:59:50.058Z,99.90
2023-03-10T23:01:56.342Z,99.90
2023-03-10T23:04:02.943Z,99.90
2023-03-10T23:06:09.114Z,99.90
2023-03-10T23:08:16.244Z,99.90
2023-03-10T23:10:31.721Z,99.90
2023-03-10T23:12:39.364Z,99.90
2023-03-10T23:14:49.233Z,99.90
2023-03-10T23:16:54.131Z,99.90
2023-03-10T23:18:59.219Z,99.90
2023-03-10T23:21:05.732Z,99.90
2023-03-10T23:23:14.621Z,99.90
2023-03-10T23:25:26.560Z,99.90
2023-03-10T23:27:31.538Z,99.90
2023-03-10T23:29:36.671Z,99.90
2023-03-10T23:31:44.867Z,99.90
2023-03-10T23:33:49.767Z,99.90
2023-03-10T23:35:55.424Z,99.90
2023-03-10T23:38:03.244Z,99.90
2023-03-10T23:40:12.681Z,99.90
2023-03-10T23:42:17.818Z,99.90
2023-03-10T23:44:24.387Z,99.90
2023-03-10T23:46:29.495Z,99.90
2023-03-10T23:48:38.008Z,99.90
2023-03-10T23:50:48.250Z,99.90
2023-03-10T23:52:53.287Z,99.90
2023-03-10T23:54:59.729Z,99.90
2023-03-10T23:57:04.756Z,99.90
2023-03-10T23:59:09.610Z,99.90
